sensor_id;sensor_type;location;lat;lon;timestamp;pressure;altitude;pressure_sealevel;temperature;humidity
42511;BME280;28141;51.120;17.114;2022-11-11T00:01:35;103058.88;;;26.89;33.66
42511;BME280;28141;51.120;17.114;2022-11-11T00:04:38;103058.19;;;26.87;33.02
42511;BME280;28141;51.120;17.114;2022-11-11T00:08:10;103058.01;;;26.89;33.60
42511;BME280;28141;51.120;17.114;2022-11-11T00:11:14;103044.96;;;26.89;33.93
42511;BME280;28141;51.120;17.114;2022-11-11T00:14:18;103040.26;;;26.90;33.88
42511;BME280;28141;51.120;17.114;2022-11-11T00:17:21;103043.37;;;26.80;33.67
42511;BME280;28141;51.120;17.114;2022-11-11T00:20:37;103042.42;;;26.73;33.64
42511;BME280;28141;51.120;17.114;2022-11-11T00:23:52;103033.84;;;26.68;33.83
42511;BME280;28141;51.120;17.114;2022-11-11T00:27:34;103034.84;;;26.61;33.90
42511;BME280;28141;51.120;17.114;2022-11-11T00:30:38;103040.84;;;26.64;33.97
42511;BME280;28141;51.120;17.114;2022-11-11T00:33:41;103043.71;;;26.71;34.04
42511;BME280;28141;51.120;17.114;2022-11-11T00:36:44;103033.69;;;26.76;33.88
42511;BME280;28141;51.120;17.114;2022-11-11T00:39:48;103030.45;;;26.73;33.97
42511;BME280;28141;51.120;17.114;2022-11-11T00:42:51;103037.63;;;26.82;33.86
42511;BME280;28141;51.120;17.114;2022-11-11T00:45:54;103036.29;;;26.78;33.76
42511;BME280;28141;51.120;17.114;2022-11-11T00:49:09;103030.10;;;26.82;33.72
42511;BME280;28141;51.120;17.114;2022-11-11T00:52:50;103036.00;;;26.73;33.79
42511;BME280;28141;51.120;17.114;2022-11-11T00:55:55;103021.72;;;26.76;33.83
42511;BME280;28141;51.120;17.114;2022-11-11T00:58:59;103036.09;;;26.79;33.85
42511;BME280;28141;51.120;17.114;2022-11-11T01:02:03;103039.91;;;26.78;33.83
42511;BME280;28141;51.120;17.114;2022-11-11T01:05:06;103040.60;;;26.80;33.81
42511;BME280;28141;51.120;17.114;2022-11-11T01:08:10;103044.44;;;26.79;33.48
42511;BME280;28141;51.120;17.114;2022-11-11T01:11:16;103041.17;;;26.76;34.14
42511;BME280;28141;51.120;17.114;2022-11-11T01:14:19;103042.42;;;26.73;33.65
42511;BME280;28141;51.120;17.114;2022-11-11T01:17:23;103048.85;;;26.74;33.71
42511;BME280;28141;51.120;17.114;2022-11-11T01:20:26;103049.91;;;26.73;33.89
42511;BME280;28141;51.120;17.114;2022-11-11T01:23:31;103051.44;;;26.75;33.98
42511;BME280;28141;51.120;17.114;2022-11-11T01:27:01;103054.88;;;26.77;33.76
42511;BME280;28141;51.120;17.114;2022-11-11T01:30:05;103047.20;;;26.79;33.69
42511;BME280;28141;51.120;17.114;2022-11-11T01:33:10;103053.64;;;26.80;33.69
42511;BME280;28141;51.120;17.114;2022-11-11T01:36:19;103042.09;;;26.83;33.73
42511;BME280;28141;51.120;17.114;2022-11-11T01:39:23;103039.54;;;26.81;33.73
42511;BME280;28141;51.120;17.114;2022-11-11T01:42:27;103039.54;;;26.81;33.62
42511;BME280;28141;51.120;17.114;2022-11-11T01:48:50;103031.05;;;26.68;33.81
42511;BME280;28141;51.120;17.114;2022-11-11T01:52:37;103031.58;;;26.57;33.96
42511;BME280;28141;51.120;17.114;2022-11-11T01:55:42;103024.16;;;26.64;33.86
42511;BME280;28141;51.120;17.114;2022-11-11T01:58:46;103026.80;;;26.72;33.74
42511;BME280;28141;51.120;17.114;2022-11-11T02:01:50;103019.99;;;26.75;33.72
42511;BME280;28141;51.120;17.114;2022-11-11T02:04:54;103019.41;;;26.79;34.24
42511;BME280;28141;51.120;17.114;2022-11-11T02:08:15;103014.62;;;26.73;33.61
42511;BME280;28141;51.120;17.114;2022-11-11T02:12:03;103021.85;;;26.68;33.80
42511;BME280;28141;51.120;17.114;2022-11-11T02:15:21;103017.73;;;26.64;33.83
42511;BME280;28141;51.120;17.114;2022-11-11T02:18:24;103010.79;;;26.74;33.73
42511;BME280;28141;51.120;17.114;2022-11-11T02:21:35;103010.79;;;26.74;33.89
42511;BME280;28141;51.120;17.114;2022-11-11T02:24:43;103009.53;;;26.77;33.71
42511;BME280;28141;51.120;17.114;2022-11-11T02:27:50;103020.47;;;26.78;33.73
42511;BME280;28141;51.120;17.114;2022-11-11T02:31:26;103023.24;;;26.78;33.59
42511;BME280;28141;51.120;17.114;2022-11-11T02:34:31;103032.64;;;26.77;33.75
42511;BME280;28141;51.120;17.114;2022-11-11T02:37:35;103036.96;;;26.80;33.42
42511;BME280;28141;51.120;17.114;2022-11-11T02:40:41;103039.91;;;26.78;33.73
42511;BME280;28141;51.120;17.114;2022-11-11T02:43:56;103034.28;;;26.72;33.66
42511;BME280;28141;51.120;17.114;2022-11-11T02:46:59;103031.30;;;26.73;33.76
42511;BME280;28141;51.120;17.114;2022-11-11T02:50:04;103030.23;;;26.74;33.63
42511;BME280;28141;51.120;17.114;2022-11-11T02:53:35;103032.97;;;26.68;33.68
42511;BME280;28141;51.120;17.114;2022-11-11T02:56:38;103026.55;;;26.67;33.67
42511;BME280;28141;51.120;17.114;2022-11-11T02:59:56;103026.08;;;26.64;33.62
42511;BME280;28141;51.120;17.114;2022-11-11T03:03:00;103021.85;;;26.68;33.71
42511;BME280;28141;51.120;17.114;2022-11-11T03:06:04;103023.09;;;26.65;33.64
42511;BME280;28141;51.120;17.114;2022-11-11T03:09:07;103014.56;;;26.67;33.67
42511;BME280;28141;51.120;17.114;2022-11-11T03:12:11;103024.24;;;26.71;33.64
42511;BME280;28141;51.120;17.114;2022-11-11T03:15:14;103031.73;;;26.70;33.42
42511;BME280;28141;51.120;17.114;2022-11-11T03:18:17;103032.36;;;26.72;33.53
42511;BME280;28141;51.120;17.114;2022-11-11T03:21:47;103039.02;;;26.71;33.58
42511;BME280;28141;51.120;17.114;2022-11-11T03:24:50;103034.28;;;26.72;33.78
42511;BME280;28141;51.120;17.114;2022-11-11T03:28:08;103036.33;;;26.63;33.47
42511;BME280;28141;51.120;17.114;2022-11-11T03:31:12;103046.59;;;26.63;33.70
42511;BME280;28141;51.120;17.114;2022-11-11T03:34:15;103045.35;;;26.65;33.38
42511;BME280;28141;51.120;17.114;2022-11-11T03:37:21;103049.66;;;26.68;33.55
42511;BME280;28141;51.120;17.114;2022-11-11T03:41:04;103058.77;;;26.62;33.62
42511;BME280;28141;51.120;17.114;2022-11-11T03:44:07;103055.80;;;26.63;33.63
42511;BME280;28141;51.120;17.114;2022-11-11T03:47:10;103055.21;;;26.68;33.54
42511;BME280;28141;51.120;17.114;2022-11-11T03:50:14;103061.45;;;26.70;33.55
42511;BME280;28141;51.120;17.114;2022-11-11T03:53:19;103060.59;;;26.69;33.62
42511;BME280;28141;51.120;17.114;2022-11-11T03:56:24;103064.48;;;26.75;33.63
42511;BME280;28141;51.120;17.114;2022-11-11T03:59:27;103068.51;;;26.72;33.17
42511;BME280;28141;51.120;17.114;2022-11-11T04:02:30;103076.48;;;26.75;33.58
42511;BME280;28141;51.120;17.114;2022-11-11T04:05:46;103078.32;;;26.68;33.32
42511;BME280;28141;51.120;17.114;2022-11-11T04:09:27;103070.12;;;26.60;33.56
42511;BME280;28141;51.120;17.114;2022-11-11T04:12:43;103082.29;;;26.59;33.54
42511;BME280;28141;51.120;17.114;2022-11-11T04:15:58;103087.44;;;26.62;33.70
42511;BME280;28141;51.120;17.114;2022-11-11T04:19:07;103090.89;;;26.64;33.19
42511;BME280;28141;51.120;17.114;2022-11-11T04:22:49;103088.49;;;26.61;33.55
42511;BME280;28141;51.120;17.114;2022-11-11T04:25:59;103083.22;;;26.66;33.46
42511;BME280;28141;51.120;17.114;2022-11-11T04:29:03;103078.32;;;26.68;33.53
42511;BME280;28141;51.120;17.114;2022-11-11T04:32:20;103082.55;;;26.64;33.63
42511;BME280;28141;51.120;17.114;2022-11-11T04:35:36;103086.31;;;26.57;33.61
42511;BME280;28141;51.120;17.114;2022-11-11T04:39:07;103087.06;;;26.65;33.53
42511;BME280;28141;51.120;17.114;2022-11-11T04:42:23;103080.56;;;26.58;33.59
42511;BME280;28141;51.120;17.114;2022-11-11T04:45:27;103086.80;;;26.60;33.42
42511;BME280;28141;51.120;17.114;2022-11-11T04:48:32;103084.66;;;26.62;33.37
42511;BME280;28141;51.120;17.114;2022-11-11T04:51:35;103096.92;;;26.68;33.49
42511;BME280;28141;51.120;17.114;2022-11-11T04:54:50;103094.53;;;26.65;33.46
42511;BME280;28141;51.120;17.114;2022-11-11T04:58:33;103093.98;;;26.54;33.61
42511;BME280;28141;51.120;17.114;2022-11-11T05:01:37;103086.12;;;26.58;33.41
42511;BME280;28141;51.120;17.114;2022-11-11T05:04:52;103073.79;;;26.46;33.74
42511;BME280;28141;51.120;17.114;2022-11-11T05:07:55;103074.33;;;26.56;33.84
42511;BME280;28141;51.120;17.114;2022-11-11T05:11:11;103067.17;;;26.47;33.83
42511;BME280;28141;51.120;17.114;2022-11-11T05:14:14;103070.02;;;26.53;33.29
42511;BME280;28141;51.120;17.114;2022-11-11T05:17:55;103074.27;;;26.49;33.71
42511;BME280;28141;51.120;17.114;2022-11-11T05:21:15;103058.74;;;26.40;33.96
42511;BME280;28141;51.120;17.114;2022-11-11T05:24:23;103062.48;;;26.47;33.68
42511;BME280;28141;51.120;17.114;2022-11-11T05:27:39;103060.28;;;26.43;33.75
42511;BME280;28141;51.120;17.114;2022-11-11T05:30:43;103067.84;;;26.49;33.43
42511;BME280;28141;51.120;17.114;2022-11-11T05:34:15;103073.85;;;26.52;33.66
42511;BME280;28141;51.120;17.114;2022-11-11T05:37:19;103077.11;;;26.56;33.47
42511;BME280;28141;51.120;17.114;2022-11-11T05:40:22;103076.91;;;26.58;33.80
42511;BME280;28141;51.120;17.114;2022-11-11T05:43:25;103085.33;;;26.64;33.26
42511;BME280;28141;51.120;17.114;2022-11-11T05:46:29;103082.09;;;26.61;33.32
42511;BME280;28141;51.120;17.114;2022-11-11T05:49:32;103079.09;;;26.62;33.29
42511;BME280;28141;51.120;17.114;2022-11-11T05:52:36;103081.49;;;26.65;33.24
42511;BME280;28141;51.120;17.114;2022-11-11T05:55:39;103084.01;;;26.60;33.53
42511;BME280;28141;51.120;17.114;2022-11-11T05:58:42;103082.29;;;26.59;33.30
42511;BME280;28141;51.120;17.114;2022-11-11T06:01:46;103086.80;;;26.60;33.63
42511;BME280;28141;51.120;17.114;2022-11-11T06:04:50;103098.56;;;26.62;33.62
42511;BME280;28141;51.120;17.114;2022-11-11T06:08:22;103109.30;;;26.65;33.43
42511;BME280;28141;51.120;17.114;2022-11-11T06:11:25;103118.69;;;26.64;33.46
42511;BME280;28141;51.120;17.114;2022-11-11T06:14:29;103103.55;;;26.67;33.50
42511;BME280;28141;51.120;17.114;2022-11-11T06:17:33;103127.39;;;26.76;33.36
42511;BME280;28141;51.120;17.114;2022-11-11T06:20:36;103117.79;;;26.78;33.12
42511;BME280;28141;51.120;17.114;2022-11-11T06:23:39;103116.87;;;26.71;33.15
42511;BME280;28141;51.120;17.114;2022-11-11T06:26:43;103114.67;;;26.67;33.36
42511;BME280;28141;51.120;17.114;2022-11-11T06:29:46;103112.07;;;26.65;33.27
42511;BME280;28141;51.120;17.114;2022-11-11T06:32:49;103110.34;;;26.64;33.33
42511;BME280;28141;51.120;17.114;2022-11-11T06:35:52;103105.65;;;26.65;33.17
42511;BME280;28141;51.120;17.114;2022-11-11T06:38:56;103117.70;;;26.72;33.45
42511;BME280;28141;51.120;17.114;2022-11-11T06:42:28;103123.41;;;26.85;33.21
42511;BME280;28141;51.120;17.114;2022-11-11T06:45:32;103119.84;;;26.70;32.95
42511;BME280;28141;51.120;17.114;2022-11-11T06:48:37;103125.30;;;26.63;33.21
42511;BME280;28141;51.120;17.114;2022-11-11T06:51:45;103115.33;;;26.69;33.35
42511;BME280;28141;51.120;17.114;2022-11-11T06:54:48;103131.42;;;26.73;33.26
42511;BME280;28141;51.120;17.114;2022-11-11T06:57:51;103138.13;;;26.79;33.22
42511;BME280;28141;51.120;17.114;2022-11-11T07:00:54;103130.71;;;26.86;33.04
42511;BME280;28141;51.120;17.114;2022-11-11T07:03:58;103121.70;;;26.84;33.02
42511;BME280;28141;51.120;17.114;2022-11-11T07:07:01;103117.41;;;26.81;32.97
42511;BME280;28141;51.120;17.114;2022-11-11T07:10:05;103114.41;;;26.83;32.97
42511;BME280;28141;51.120;17.114;2022-11-11T07:13:38;103111.91;;;26.88;33.06
42511;BME280;28141;51.120;17.114;2022-11-11T07:16:42;103106.82;;;26.92;32.76
42511;BME280;28141;51.120;17.114;2022-11-11T07:19:45;103105.48;;;26.87;32.80
42511;BME280;28141;51.120;17.114;2022-11-11T07:22:48;103107.38;;;27.02;32.86
42511;BME280;28141;51.120;17.114;2022-11-11T07:25:52;103109.70;;;26.98;32.81
42511;BME280;28141;51.120;17.114;2022-11-11T07:28:55;103113.34;;;26.99;32.82
42511;BME280;28141;51.120;17.114;2022-11-11T07:31:59;103116.98;;;26.99;32.92
42511;BME280;28141;51.120;17.114;2022-11-11T07:35:03;103119.77;;;26.99;32.62
42511;BME280;28141;51.120;17.114;2022-11-11T07:38:07;103119.62;;;27.07;32.69
42511;BME280;28141;51.120;17.114;2022-11-11T07:41:10;103115.30;;;27.05;32.85
42511;BME280;28141;51.120;17.114;2022-11-11T07:44:13;103119.29;;;27.17;32.72
42511;BME280;28141;51.120;17.114;2022-11-11T07:47:44;103119.05;;;27.12;32.71
42511;BME280;28141;51.120;17.114;2022-11-11T07:50:51;103115.45;;;27.18;32.67
42511;BME280;28141;51.120;17.114;2022-11-11T07:53:56;103119.09;;;27.18;32.70
42511;BME280;28141;51.120;17.114;2022-11-11T07:56:59;103120.81;;;27.19;32.64
42511;BME280;28141;51.120;17.114;2022-11-11T08:00:04;103120.81;;;27.19;32.53
42511;BME280;28141;51.120;17.114;2022-11-11T08:03:08;103120.48;;;27.29;32.70
42511;BME280;28141;51.120;17.114;2022-11-11T08:06:12;103133.34;;;27.30;32.78
42511;BME280;28141;51.120;17.114;2022-11-11T08:09:15;103130.82;;;27.35;32.15
42511;BME280;28141;51.120;17.114;2022-11-11T08:12:18;103115.43;;;27.39;32.25
42511;BME280;28141;51.120;17.114;2022-11-11T08:16:00;103127.30;;;27.26;32.47
42511;BME280;28141;51.120;17.114;2022-11-11T08:19:08;103129.15;;;27.41;32.08
42511;BME280;28141;51.120;17.114;2022-11-11T08:22:11;103128.56;;;27.45;32.33
42511;BME280;28141;51.120;17.114;2022-11-11T08:25:15;103129.00;;;27.49;32.44
42511;BME280;28141;51.120;17.114;2022-11-11T08:28:18;103130.92;;;27.48;32.60
42511;BME280;28141;51.120;17.114;2022-11-11T08:31:21;103136.09;;;27.51;31.99
42511;BME280;28141;51.120;17.114;2022-11-11T08:34:24;103150.69;;;27.53;32.15
42511;BME280;28141;51.120;17.114;2022-11-11T08:37:28;103155.47;;;27.59;32.22
42511;BME280;28141;51.120;17.114;2022-11-11T08:40:31;103154.00;;;27.64;32.44
42511;BME280;28141;51.120;17.114;2022-11-11T08:43:35;103146.05;;;27.60;31.97
42511;BME280;28141;51.120;17.114;2022-11-11T08:46:39;103154.88;;;27.64;31.91
42511;BME280;28141;51.120;17.114;2022-11-11T08:50:09;103152.09;;;27.64;32.12
42511;BME280;28141;51.120;17.114;2022-11-11T08:53:12;103150.87;;;27.73;32.30
42511;BME280;28141;51.120;17.114;2022-11-11T08:56:15;103140.62;;;27.80;31.71
42511;BME280;28141;51.120;17.114;2022-11-11T08:59:19;103143.84;;;27.77;31.88
42511;BME280;28141;51.120;17.114;2022-11-11T09:02:22;103141.49;;;27.81;31.37
42511;BME280;28141;51.120;17.114;2022-11-11T09:05:25;103149.26;;;27.85;31.68
42511;BME280;28141;51.120;17.114;2022-11-11T09:08:29;103156.19;;;27.96;32.19
42511;BME280;28141;51.120;17.114;2022-11-11T09:11:32;103157.05;;;27.96;32.19
42511;BME280;28141;51.120;17.114;2022-11-11T09:14:38;103159.63;;;27.98;32.15
42511;BME280;28141;51.120;17.114;2022-11-11T09:17:45;103161.78;;;28.03;31.56
42511;BME280;28141;51.120;17.114;2022-11-11T09:21:17;103168.03;;;28.05;31.66
42511;BME280;28141;51.120;17.114;2022-11-11T09:24:21;103166.69;;;28.22;31.89
42511;BME280;28141;51.120;17.114;2022-11-11T09:27:24;103172.25;;;28.22;31.35
42511;BME280;28141;51.120;17.114;2022-11-11T09:30:28;103173.35;;;28.27;31.55
42511;BME280;28141;51.120;17.114;2022-11-11T09:33:31;103165.86;;;28.28;31.31
42511;BME280;28141;51.120;17.114;2022-11-11T09:36:35;103163.32;;;28.33;31.44
42511;BME280;28141;51.120;17.114;2022-11-11T09:39:38;103162.73;;;28.44;31.05
42511;BME280;28141;51.120;17.114;2022-11-11T09:42:49;103169.80;;;28.47;30.86
42511;BME280;28141;51.120;17.114;2022-11-11T09:53:00;103163.80;;;28.43;30.99
42511;BME280;28141;51.120;17.114;2022-11-11T09:56:14;103158.90;;;28.52;30.25
42511;BME280;28141;51.120;17.114;2022-11-11T09:59:29;103159.77;;;28.52;30.84
42511;BME280;28141;51.120;17.114;2022-11-11T10:03:05;103158.07;;;28.58;31.00
42511;BME280;28141;51.120;17.114;2022-11-11T10:06:17;103145.44;;;28.68;30.93
42511;BME280;28141;51.120;17.114;2022-11-11T10:09:30;103136.87;;;28.70;30.76
42511;BME280;28141;51.120;17.114;2022-11-11T10:12:41;103147.20;;;28.76;30.96
42511;BME280;28141;51.120;17.114;2022-11-11T10:22:44;103143.80;;;28.81;30.42
42511;BME280;28141;51.120;17.114;2022-11-11T10:25:52;103148.56;;;28.87;30.76
42511;BME280;28141;51.120;17.114;2022-11-11T10:28:57;103143.43;;;28.97;30.30
42511;BME280;28141;51.120;17.114;2022-11-11T10:32:14;103144.09;;;29.05;30.70
42511;BME280;28141;51.120;17.114;2022-11-11T10:35:46;103141.75;;;29.09;30.37
42511;BME280;28141;51.120;17.114;2022-11-11T10:45:29;103137.02;;;29.16;30.33
42511;BME280;28141;51.120;17.114;2022-11-11T10:48:48;103130.79;;;29.14;30.29
42511;BME280;28141;51.120;17.114;2022-11-11T10:52:26;103133.16;;;29.17;30.17
42511;BME280;28141;51.120;17.114;2022-11-11T10:55:44;103125.65;;;29.24;30.23
42511;BME280;28141;51.120;17.114;2022-11-11T10:58:56;103130.60;;;29.29;30.14
42511;BME280;28141;51.120;17.114;2022-11-11T11:05:53;103125.44;;;29.19;30.05
42511;BME280;28141;51.120;17.114;2022-11-11T11:09:10;103123.72;;;29.25;29.80
42511;BME280;28141;51.120;17.114;2022-11-11T11:12:27;103126.30;;;29.26;30.01
42511;BME280;28141;51.120;17.114;2022-11-11T11:15:36;103130.16;;;29.19;30.30
42511;BME280;28141;51.120;17.114;2022-11-11T11:19:14;103123.95;;;29.30;30.09
42511;BME280;28141;51.120;17.114;2022-11-11T11:22:21;103120.09;;;29.31;29.35
42511;BME280;28141;51.120;17.114;2022-11-11T11:25:31;103122.42;;;29.34;29.44
42511;BME280;28141;51.120;17.114;2022-11-11T11:31:53;103111.70;;;29.31;30.47
42511;BME280;28141;51.120;17.114;2022-11-11T11:34:56;103117.70;;;29.34;29.57
42511;BME280;28141;51.120;17.114;2022-11-11T11:38:38;103124.15;;;29.35;29.98
42511;BME280;28141;51.120;17.114;2022-11-11T11:41:43;103129.34;;;29.38;29.61
42511;BME280;28141;51.120;17.114;2022-11-11T11:44:51;103121.61;;;29.47;29.93
42511;BME280;28141;51.120;17.114;2022-11-11T11:51:20;103108.92;;;29.44;29.99
42511;BME280;28141;51.120;17.114;2022-11-11T11:55:00;103102.04;;;29.53;29.76
42511;BME280;28141;51.120;17.114;2022-11-11T12:22:01;103114.32;;;29.52;29.76
42511;BME280;28141;51.120;17.114;2022-11-11T12:25:11;103100.11;;;29.54;29.78
42511;BME280;28141;51.120;17.114;2022-11-11T12:55:23;103093.45;;;29.55;29.89
42511;BME280;28141;51.120;17.114;2022-11-11T12:58:37;103100.96;;;29.54;30.13
42511;BME280;28141;51.120;17.114;2022-11-11T13:05:29;103078.86;;;29.46;29.46
42511;BME280;28141;51.120;17.114;2022-11-11T13:15:31;103085.51;;;29.45;29.86
42511;BME280;28141;51.120;17.114;2022-11-11T13:21:59;103078.42;;;29.43;29.95
42511;BME280;28141;51.120;17.114;2022-11-11T13:25:05;103078.21;;;29.51;29.82
42511;BME280;28141;51.120;17.114;2022-11-11T13:28:15;103071.75;;;29.57;29.83
42511;BME280;28141;51.120;17.114;2022-11-11T13:31:32;103067.45;;;29.54;29.86
42511;BME280;28141;51.120;17.114;2022-11-11T13:38:29;103075.22;;;29.39;30.42
42511;BME280;28141;51.120;17.114;2022-11-11T13:41:36;103083.13;;;29.35;30.31
42511;BME280;28141;51.120;17.114;2022-11-11T13:44:49;103083.38;;;29.40;30.43
42511;BME280;28141;51.120;17.114;2022-11-11T13:47:54;103085.74;;;29.37;30.11
42511;BME280;28141;51.120;17.114;2022-11-11T13:54:41;103092.16;;;29.31;30.20
42511;BME280;28141;51.120;17.114;2022-11-11T13:57:50;103086.59;;;29.31;30.23
42511;BME280;28141;51.120;17.114;2022-11-11T14:00:59;103087.20;;;29.33;30.14
42511;BME280;28141;51.120;17.114;2022-11-11T14:04:06;103085.73;;;29.30;29.66
42511;BME280;28141;51.120;17.114;2022-11-11T14:07:09;103077.76;;;29.27;30.25
42511;BME280;28141;51.120;17.114;2022-11-11T14:13:57;103077.13;;;29.19;30.21
42511;BME280;28141;51.120;17.114;2022-11-11T14:17:13;103073.26;;;29.20;30.13
42511;BME280;28141;51.120;17.114;2022-11-11T14:23:40;103093.41;;;29.02;30.56
42511;BME280;28141;51.120;17.114;2022-11-11T14:43:54;103087.15;;;28.80;30.81
42511;BME280;28141;51.120;17.114;2022-11-11T14:49:54;103097.23;;;28.81;31.04
42511;BME280;28141;51.120;17.114;2022-11-11T14:53:13;103104.75;;;28.81;30.74
42511;BME280;28141;51.120;17.114;2022-11-11T14:56:17;103102.13;;;28.73;31.47
42511;BME280;28141;51.120;17.114;2022-11-11T14:59:24;103101.27;;;28.72;30.88
42511;BME280;28141;51.120;17.114;2022-11-11T15:02:33;103092.70;;;28.74;31.09
42511;BME280;28141;51.120;17.114;2022-11-11T15:12:42;103097.35;;;28.53;31.17
42511;BME280;28141;51.120;17.114;2022-11-11T15:39:38;103100.22;;;28.25;31.60
42511;BME280;28141;51.120;17.114;2022-11-11T15:42:44;103103.66;;;28.27;31.50
42511;BME280;28141;51.120;17.114;2022-11-11T15:45:54;103103.45;;;28.29;32.18
42511;BME280;28141;51.120;17.114;2022-11-11T15:48:58;103099.82;;;28.28;31.57
42511;BME280;28141;51.120;17.114;2022-11-11T15:52:01;103101.28;;;28.24;31.65
42511;BME280;28141;51.120;17.114;2022-11-11T15:58:27;103104.06;;;28.24;31.07
42511;BME280;28141;51.120;17.114;2022-11-11T16:01:57;103107.20;;;28.15;31.62
42511;BME280;28141;51.120;17.114;2022-11-11T16:05:06;103105.29;;;28.15;31.57
42511;BME280;28141;51.120;17.114;2022-11-11T16:08:17;103102.70;;;28.14;31.75
42511;BME280;28141;51.120;17.114;2022-11-11T16:11:22;103110.11;;;28.28;31.79
42511;BME280;28141;51.120;17.114;2022-11-11T16:14:31;103117.60;;;28.27;31.34
42511;BME280;28141;51.120;17.114;2022-11-11T16:17:41;103120.57;;;28.19;32.16
42511;BME280;28141;51.120;17.114;2022-11-11T16:21:20;103123.27;;;28.13;31.62
42511;BME280;28141;51.120;17.114;2022-11-11T16:24:27;103117.13;;;28.17;31.54
42511;BME280;28141;51.120;17.114;2022-11-11T16:27:33;103115.58;;;28.15;31.89
42511;BME280;28141;51.120;17.114;2022-11-11T16:30:37;103118.73;;;28.05;31.58
42511;BME280;28141;51.120;17.114;2022-11-11T16:33:40;103133.50;;;27.99;31.69
42511;BME280;28141;51.120;17.114;2022-11-11T16:43:42;103139.54;;;27.75;32.22
42511;BME280;28141;51.120;17.114;2022-11-11T16:46:46;103135.02;;;27.74;32.21
42511;BME280;28141;51.120;17.114;2022-11-11T16:53:04;103126.43;;;27.69;32.05
42511;BME280;28141;51.120;17.114;2022-11-11T16:59:52;103115.69;;;27.66;32.17
42511;BME280;28141;51.120;17.114;2022-11-11T17:03:13;103117.81;;;27.64;32.39
42511;BME280;28141;51.120;17.114;2022-11-11T17:06:17;103111.41;;;27.70;32.16
42511;BME280;28141;51.120;17.114;2022-11-11T17:09:26;103110.62;;;27.76;32.61
42511;BME280;28141;51.120;17.114;2022-11-11T17:12:31;103108.42;;;27.71;32.68
42511;BME280;28141;51.120;17.114;2022-11-11T17:15:34;103122.62;;;27.76;32.20
42511;BME280;28141;51.120;17.114;2022-11-11T17:18:38;103122.83;;;27.75;32.15
42511;BME280;28141;51.120;17.114;2022-11-11T17:21:42;103129.84;;;27.71;32.28
42511;BME280;28141;51.120;17.114;2022-11-11T17:24:46;103123.18;;;27.65;31.93
42511;BME280;28141;51.120;17.114;2022-11-11T17:27:49;103128.69;;;27.58;32.75
42511;BME280;28141;51.120;17.114;2022-11-11T17:31:22;103131.46;;;27.58;32.40
42511;BME280;28141;51.120;17.114;2022-11-11T17:34:28;103130.01;;;27.63;32.36
42511;BME280;28141;51.120;17.114;2022-11-11T17:37:35;103129.62;;;27.66;31.98
42511;BME280;28141;51.120;17.114;2022-11-11T17:40:43;103131.55;;;27.65;32.49
42511;BME280;28141;51.120;17.114;2022-11-11T17:43:48;103130.27;;;27.68;32.41
42511;BME280;28141;51.120;17.114;2022-11-11T17:46:51;103128.13;;;27.70;32.22
42511;BME280;28141;51.120;17.114;2022-11-11T17:49:54;103128.91;;;27.57;32.75
42511;BME280;28141;51.120;17.114;2022-11-11T17:52:58;103131.46;;;27.58;31.92
42511;BME280;28141;51.120;17.114;2022-11-11T17:56:05;103128.91;;;27.57;32.12
42511;BME280;28141;51.120;17.114;2022-11-11T17:59:35;103139.54;;;27.53;32.30
42511;BME280;28141;51.120;17.114;2022-11-11T18:02:38;103134.84;;;27.54;32.17
42511;BME280;28141;51.120;17.114;2022-11-11T18:05:42;103146.16;;;27.52;31.93
42511;BME280;28141;51.120;17.114;2022-11-11T18:08:45;103140.60;;;27.52;32.75
42511;BME280;28141;51.120;17.114;2022-11-11T18:11:49;103148.95;;;27.52;32.32
42511;BME280;28141;51.120;17.114;2022-11-11T18:14:52;103146.48;;;27.57;32.26
42511;BME280;28141;51.120;17.114;2022-11-11T18:17:55;103152.41;;;27.54;31.84
42511;BME280;28141;51.120;17.114;2022-11-11T18:21:05;103162.61;;;27.47;32.23
42511;BME280;28141;51.120;17.114;2022-11-11T18:24:09;103159.57;;;27.42;32.56
42511;BME280;28141;51.120;17.114;2022-11-11T18:27:13;103162.55;;;27.41;32.38
42511;BME280;28141;51.120;17.114;2022-11-11T18:30:17;103161.29;;;27.43;32.33
42511;BME280;28141;51.120;17.114;2022-11-11T18:33:48;103159.96;;;27.39;32.47
42511;BME280;28141;51.120;17.114;2022-11-11T18:36:52;103155.65;;;27.37;32.97
42511;BME280;28141;51.120;17.114;2022-11-11T18:39:55;103160.63;;;27.41;32.68
42511;BME280;28141;51.120;17.114;2022-11-11T18:42:59;103161.70;;;27.40;32.76
42511;BME280;28141;51.120;17.114;2022-11-11T18:46:07;103159.78;;;27.41;32.55
42511;BME280;28141;51.120;17.114;2022-11-11T18:49:12;103164.56;;;27.47;32.15
42511;BME280;28141;51.120;17.114;2022-11-11T18:52:16;103166.92;;;27.50;32.23
42511;BME280;28141;51.120;17.114;2022-11-11T18:55:20;103166.48;;;27.46;32.47
42511;BME280;28141;51.120;17.114;2022-11-11T18:58:23;103165.66;;;27.52;32.59
42511;BME280;28141;51.120;17.114;2022-11-11T19:01:28;103163.55;;;27.54;31.86
42511;BME280;28141;51.120;17.114;2022-11-11T19:04:58;103159.78;;;27.62;32.00
42511;BME280;28141;51.120;17.114;2022-11-11T19:08:03;103153.73;;;27.58;31.70
42511;BME280;28141;51.120;17.114;2022-11-11T19:11:08;103152.49;;;27.61;31.97
42511;BME280;28141;51.120;17.114;2022-11-11T19:14:13;103156.09;;;27.55;31.73
42511;BME280;28141;51.120;17.114;2022-11-11T19:17:17;103152.41;;;27.54;31.80
42511;BME280;28141;51.120;17.114;2022-11-11T19:20:21;103143.90;;;27.56;31.73